createdAt,value
2022-11-08T00:00:43.308Z,6.47
2022-11-08T00:03:11.598Z,6.22
2022-11-08T00:05:58.939Z,10.60
2022-11-08T00:08:44.709Z,8.00
2022-11-08T00:11:30.188Z,7.93
2022-11-08T00:13:58.293Z,6.03
2022-11-08T00:16:26.605Z,6.68
2022-11-08T00:18:54.861Z,9.15
2022-11-08T00:21:24.409Z,4.18
2022-11-08T00:23:52.676Z,4.93
2022-11-08T00:26:21.282Z,3.42
2022-11-08T00:28:49.378Z,5.63
2022-11-08T00:31:17.625Z,7.38
2022-11-08T00:33:46.264Z,5.28
2022-11-08T00:36:14.397Z,5.40
2022-11-08T00:38:44.547Z,5.82
2022-11-08T00:41:13.017Z,4.82
2022-11-08T00:43:41.123Z,4.10
2022-11-08T00:46:09.281Z,5.55
2022-11-08T00:48:37.746Z,5.30
2022-11-08T00:51:08.069Z,5.28
2022-11-08T00:53:38.693Z,4.93
2022-11-08T00:56:11.708Z,4.05
2022-11-08T00:58:41.418Z,4.97
2022-11-08T01:01:11.850Z,6.97
2022-11-08T01:03:40.190Z,4.82
2022-11-08T01:06:10.183Z,6.53
2022-11-08T01:08:39.029Z,4.70
2022-11-08T01:11:11.659Z,4.78
2022-11-08T01:13:42.460Z,7.88
2022-11-08T01:16:13.835Z,6.15
2022-11-08T01:18:42.225Z,4.90
2022-11-08T01:21:12.387Z,5.65
2022-11-08T01:23:41.269Z,5.18
2022-11-08T01:26:13.274Z,5.32
2022-11-08T01:28:41.881Z,3.80
2022-11-08T01:31:11.495Z,6.50
2022-11-08T01:33:40.128Z,5.55
2022-11-08T01:36:09.807Z,4.70
2022-11-08T01:38:38.560Z,8.63
2022-11-08T01:41:08.210Z,6.18
2022-11-08T01:43:40.941Z,5.82
2022-11-08T01:46:40.985Z,5.00
2022-11-08T01:49:26.434Z,4.53
2022-11-08T01:52:02.232Z,6.53
2022-11-08T01:54:34.744Z,7.40
2022-11-08T01:57:06.366Z,6.25
2022-11-08T01:59:40.857Z,3.95
2022-11-08T02:02:10.841Z,4.93
2022-11-08T02:04:41.596Z,5.72
2022-11-08T02:07:11.993Z,5.80
2022-11-08T02:09:42.726Z,6.47
2022-11-08T02:12:13.213Z,7.00
2022-11-08T02:14:43.109Z,9.45
2022-11-08T02:17:11.823Z,4.13
2022-11-08T02:19:43.659Z,4.75
2022-11-08T02:22:21.960Z,4.93
2022-11-08T02:24:52.076Z,5.30
2022-11-08T02:27:20.510Z,5.25
2022-11-08T02:29:48.594Z,4.30
2022-11-08T02:32:16.874Z,5.57
2022-11-08T02:34:48.711Z,4.82
2022-11-08T02:37:18.938Z,4.28
2022-11-08T02:39:47.853Z,5.30
2022-11-08T02:42:20.032Z,4.22
2022-11-08T02:44:48.325Z,5.97
2022-11-08T02:47:16.857Z,6.35
2022-11-08T02:49:45.048Z,2.83
2022-11-08T02:52:13.139Z,6.45
2022-11-08T02:54:41.359Z,5.07
2022-11-08T02:57:09.943Z,5.75
2022-11-08T02:59:39.427Z,4.72
2022-11-08T03:02:07.956Z,4.47
2022-11-08T03:04:36.388Z,7.43
2022-11-08T03:07:04.477Z,4.65
2022-11-08T03:09:32.707Z,3.70
2022-11-08T03:12:00.771Z,3.28
2022-11-08T03:14:28.830Z,3.63
2022-11-08T03:16:58.220Z,6.40
2022-11-08T03:19:26.300Z,3.75
2022-11-08T03:21:54.410Z,7.07
2022-11-08T03:24:22.472Z,6.82
2022-11-08T03:26:50.764Z,4.47
2022-11-08T03:29:19.036Z,4.18
2022-11-08T03:31:47.477Z,3.45
2022-11-08T03:34:16.884Z,6.90
2022-11-08T03:36:45.006Z,5.50
2022-11-08T03:39:13.175Z,4.40
2022-11-08T03:41:41.213Z,5.38
2022-11-08T03:44:09.474Z,5.55
2022-11-08T03:46:37.517Z,7.50
2022-11-08T03:49:05.688Z,4.30
2022-11-08T03:51:35.137Z,5.65
2022-11-08T03:54:03.195Z,4.05
2022-11-08T03:56:31.422Z,4.60
2022-11-08T03:58:59.478Z,7.38
2022-11-08T04:01:28.440Z,5.78
2022-11-08T04:03:56.815Z,4.57
2022-11-08T04:06:25.255Z,5.13
2022-11-08T04:08:54.697Z,4.25
2022-11-08T04:11:40.527Z,5.05
2022-11-08T04:14:27.534Z,4.90
2022-11-08T04:16:57.351Z,5.85
2022-11-08T04:19:43.031Z,4.55
2022-11-08T04:22:12.713Z,3.97
2022-11-08T04:24:42.115Z,4.05
2022-11-08T04:27:10.218Z,4.00
2022-11-08T04:29:38.359Z,6.97
2022-11-08T04:32:06.729Z,5.30
2022-11-08T04:34:35.095Z,3.88
2022-11-08T04:37:03.193Z,3.70
2022-11-08T04:39:31.258Z,5.57
2022-11-08T04:42:02.323Z,5.03
2022-11-08T04:44:31.985Z,3.90
2022-11-08T04:47:00.002Z,5.63
2022-11-08T04:49:28.240Z,5.72
2022-11-08T04:51:56.969Z,4.18
2022-11-08T04:54:25.085Z,4.82
2022-11-08T04:56:53.162Z,5.60
2022-11-08T04:59:22.734Z,6.93
2022-11-08T05:01:50.969Z,5.55
2022-11-08T05:04:19.355Z,5.45
2022-11-08T05:06:48.074Z,5.43
2022-11-08T05:09:16.461Z,3.78
2022-11-08T05:11:44.586Z,7.53
2022-11-08T05:14:12.918Z,11.93
2022-11-08T05:16:42.692Z,12.52
2022-11-08T05:19:13.374Z,17.27
2022-11-08T05:21:59.416Z,18.55
2022-11-08T05:24:27.618Z,14.65
2022-11-08T05:26:56.294Z,16.20
2022-11-08T05:29:24.353Z,14.23
2022-11-08T05:31:53.929Z,17.65
2022-11-08T05:34:22.703Z,14.63
2022-11-08T05:36:50.859Z,13.73
2022-11-08T05:39:19.100Z,15.70
2022-11-08T05:41:47.589Z,10.88
2022-11-08T05:44:16.555Z,11.25
2022-11-08T05:46:45.193Z,7.90
2022-11-08T05:49:14.657Z,12.95
2022-11-08T05:51:42.753Z,9.27
2022-11-08T05:54:12.966Z,9.93
2022-11-08T05:56:41.535Z,13.25
2022-11-08T05:59:09.590Z,13.55
2022-11-08T06:01:37.776Z,10.93
2022-11-08T06:04:07.287Z,9.98
2022-11-08T06:06:36.797Z,9.02
2022-11-08T06:09:05.587Z,10.63
2022-11-08T06:11:33.687Z,9.18
2022-11-08T06:14:01.768Z,10.55
2022-11-08T06:16:29.845Z,12.88
2022-11-08T06:18:58.480Z,9.38
2022-11-08T06:21:27.395Z,9.48
2022-11-08T06:23:57.108Z,11.05
2022-11-08T06:26:25.975Z,8.35
2022-11-08T06:28:54.113Z,12.77
2022-11-08T06:31:22.576Z,11.45
2022-11-08T06:33:51.280Z,7.70
2022-11-08T06:36:21.385Z,8.27
2022-11-08T06:38:49.998Z,7.85
2022-11-08T06:41:20.519Z,10.10
2022-11-08T06:43:49.212Z,9.48
2022-11-08T06:46:17.300Z,7.60
2022-11-08T06:48:45.886Z,6.13
2022-11-08T06:51:14.474Z,6.35
2022-11-08T06:53:42.606Z,10.00
2022-11-08T06:56:11.126Z,8.25
2022-11-08T06:58:40.712Z,6.22
2022-11-08T07:01:11.847Z,11.98
2022-11-08T07:03:40.825Z,8.10
2022-11-08T07:06:09.707Z,6.40
2022-11-08T07:08:38.614Z,11.75
2022-11-08T07:11:07.685Z,8.70
2022-11-08T07:13:35.929Z,9.60
2022-11-08T07:16:06.300Z,16.02
2022-11-08T07:18:34.437Z,10.95
2022-11-08T07:21:03.361Z,9.52
2022-11-08T07:23:32.227Z,7.60
2022-11-08T07:26:03.362Z,10.32
2022-11-08T07:28:31.782Z,6.53
2022-11-08T07:31:01.734Z,10.68
2022-11-08T07:33:31.625Z,11.60
2022-11-08T07:35:59.818Z,10.68
2022-11-08T07:38:27.900Z,8.55
2022-11-08T07:40:59.742Z,7.90
2022-11-08T07:43:28.784Z,7.90
2022-11-08T07:46:02.362Z,6.95
2022-11-08T07:48:32.611Z,10.40
2022-11-08T07:51:00.652Z,10.65
2022-11-08T07:53:28.896Z,8.05
2022-11-08T07:55:58.156Z,6.30
2022-11-08T07:58:26.718Z,7.35
2022-11-08T08:00:54.821Z,18.98
2022-11-08T08:03:23.559Z,10.27
2022-11-08T08:06:00.525Z,6.55
2022-11-08T08:08:29.876Z,7.13
2022-11-08T08:11:00.280Z,8.85
2022-11-08T08:13:28.926Z,10.52
2022-11-08T08:16:00.419Z,17.23
2022-11-08T08:18:28.836Z,7.10
2022-11-08T08:20:58.380Z,7.70
2022-11-08T08:23:26.549Z,10.55
2022-11-08T08:25:54.986Z,9.07
2022-11-08T08:28:23.099Z,11.68
2022-11-08T08:30:51.277Z,9.75
2022-11-08T08:33:28.244Z,8.10
2022-11-08T08:36:01.460Z,9.18
2022-11-08T08:38:30.059Z,6.25
2022-11-08T08:40:58.795Z,11.98
2022-11-08T08:43:28.447Z,12.65
2022-11-08T08:46:00.342Z,11.30
2022-11-08T08:48:28.673Z,8.68
2022-11-08T08:50:58.871Z,14.57
2022-11-08T08:53:27.859Z,9.00
2022-11-08T08:55:57.207Z,9.73
2022-11-08T08:58:25.328Z,10.30
2022-11-08T09:03:41.642Z,10.52
2022-11-08T09:06:11.535Z,6.15
2022-11-08T09:08:39.748Z,6.38
2022-11-08T09:11:08.260Z,7.75
2022-11-08T09:13:36.661Z,7.18
2022-11-08T09:16:07.820Z,6.40
2022-11-08T09:18:36.294Z,5.85
2022-11-08T09:21:04.806Z,7.35
2022-11-08T09:23:34.477Z,6.07
2022-11-08T09:26:04.567Z,5.22
2022-11-08T09:28:33.819Z,7.43
2022-11-08T09:31:04.223Z,7.22
2022-11-08T09:33:32.848Z,6.07
2022-11-08T09:36:01.631Z,5.18
2022-11-08T09:38:30.247Z,4.88
2022-11-08T09:41:17.336Z,6.30
2022-11-08T09:44:01.388Z,6.70
2022-11-08T09:46:37.471Z,7.03
2022-11-08T09:49:09.482Z,5.05
2022-11-08T09:51:37.924Z,6.82
2022-11-08T09:54:18.505Z,6.95
2022-11-08T09:56:49.592Z,4.90
2022-11-08T09:59:32.664Z,7.32
2022-11-08T10:02:01.067Z,6.43
2022-11-08T10:04:33.048Z,5.38
2022-11-08T10:07:24.451Z,4.75
2022-11-08T10:10:33.089Z,7.40
2022-11-08T10:13:13.519Z,4.65
2022-11-08T10:15:49.886Z,4.70
2022-11-08T10:18:36.768Z,4.45
2022-11-08T10:21:12.175Z,5.47
2022-11-08T10:23:45.653Z,3.95
2022-11-08T10:26:18.061Z,3.83
2022-11-08T10:28:53.675Z,5.97
2022-11-08T10:31:22.026Z,3.90
2022-11-08T10:33:53.665Z,3.60
2022-11-08T10:36:27.146Z,6.20
2022-11-08T10:39:02.160Z,6.35
2022-11-08T10:41:38.243Z,3.50
2022-11-08T10:44:12.388Z,3.20
2022-11-08T10:46:43.515Z,6.07
2022-11-08T10:49:21.741Z,4.75
2022-11-08T10:51:53.023Z,4.40
2022-11-08T10:54:47.511Z,5.10
2022-11-08T10:57:17.822Z,3.40
2022-11-08T10:59:47.591Z,3.55
2022-11-08T11:02:28.911Z,4.10
2022-11-08T11:05:29.619Z,2.72
2022-11-08T11:08:03.937Z,3.35
2022-11-08T11:10:34.102Z,2.63
2022-11-08T11:13:05.695Z,3.95
2022-11-08T11:15:37.466Z,3.67
2022-11-08T11:18:18.024Z,3.67
2022-11-08T11:21:06.416Z,5.03
2022-11-08T11:23:41.356Z,4.50
2022-11-08T11:26:30.007Z,3.70
2022-11-08T11:29:21.455Z,2.78
2022-11-08T11:31:53.483Z,2.35
2022-11-08T11:34:44.093Z,2.83
2022-11-08T11:37:31.616Z,3.70
2022-11-08T11:40:08.252Z,2.70
2022-11-08T11:42:46.277Z,4.93
2022-11-08T11:45:20.628Z,2.90
2022-11-08T11:47:53.580Z,3.33
2022-11-08T11:50:32.448Z,3.00
2022-11-08T11:53:04.514Z,3.47
2022-11-08T11:55:43.624Z,5.25
2022-11-08T11:58:27.760Z,5.22
2022-11-08T12:01:00.408Z,2.40
2022-11-08T12:03:55.760Z,3.95
2022-11-08T12:06:34.627Z,3.97
2022-11-08T12:09:17.302Z,4.63
2022-11-08T12:11:59.240Z,4.13
2022-11-08T12:14:44.758Z,3.47
2022-11-08T12:17:33.607Z,8.25
2022-11-08T12:20:26.948Z,3.85
2022-11-08T12:23:08.657Z,3.95
2022-11-08T12:25:43.526Z,3.53
2022-11-08T12:28:34.318Z,7.07
2022-11-08T12:31:17.888Z,4.57
2022-11-08T12:33:58.003Z,3.13
2022-11-08T12:36:36.493Z,3.45
2022-11-08T12:39:17.989Z,4.95
2022-11-08T12:41:57.521Z,3.47
2022-11-08T12:44:54.746Z,2.45
2022-11-08T12:47:34.560Z,3.92
2022-11-08T12:50:18.748Z,4.65
2022-11-08T12:53:05.239Z,3.13
2022-11-08T12:55:36.603Z,4.93
2022-11-08T12:58:19.285Z,2.22
2022-11-08T13:00:52.328Z,3.15
2022-11-08T13:03:39.024Z,3.63
2022-11-08T13:06:12.381Z,5.18
2022-11-08T13:08:47.111Z,4.07
2022-11-08T13:11:22.347Z,3.83
2022-11-08T13:13:53.403Z,5.22
2022-11-08T13:16:23.891Z,2.95
2022-11-08T13:18:53.250Z,3.30
2022-11-08T13:21:40.976Z,2.72
2022-11-08T13:24:49.566Z,3.42
2022-11-08T13:27:24.407Z,2.72
2022-11-08T13:29:56.993Z,3.47
2022-11-08T13:32:49.836Z,5.07
2022-11-08T13:35:26.828Z,2.17
2022-11-08T13:38:13.542Z,3.63
2022-11-08T13:41:07.788Z,3.30
2022-11-08T13:43:36.611Z,2.08
2022-11-08T13:46:47.725Z,2.55
2022-11-08T13:49:18.004Z,2.70
2022-11-08T13:51:47.100Z,2.83
2022-11-08T13:54:51.169Z,4.25
2022-11-08T13:57:57.388Z,3.30
2022-11-08T14:00:45.316Z,2.35
2022-11-08T14:03:47.131Z,3.58
2022-11-08T14:06:20.821Z,3.00
2022-11-08T14:08:56.977Z,2.58
2022-11-08T14:12:00.376Z,5.82
2022-11-08T14:14:56.681Z,5.03
2022-11-08T14:17:41.227Z,3.15
2022-11-08T14:20:28.028Z,4.13
2022-11-08T14:22:57.011Z,3.05
2022-11-08T14:25:29.930Z,3.25
2022-11-08T14:27:58.683Z,2.63
2022-11-08T14:30:28.730Z,5.10
2022-11-08T14:33:17.751Z,4.28
2022-11-08T14:35:55.721Z,3.22
2022-11-08T14:38:24.207Z,3.00
2022-11-08T14:40:54.931Z,4.47
2022-11-08T14:43:23.813Z,4.35
2022-11-08T14:45:54.099Z,4.28
2022-11-08T14:48:25.077Z,5.18
2022-11-08T14:50:59.582Z,4.03
2022-11-08T14:53:29.241Z,2.42
2022-11-08T14:56:14.172Z,6.38
2022-11-08T14:58:42.661Z,3.13
2022-11-08T15:01:13.677Z,2.88
2022-11-08T15:03:47.092Z,5.00
2022-11-08T15:06:15.435Z,4.25
2022-11-08T15:08:52.161Z,3.55
2022-11-08T15:11:29.541Z,3.90
2022-11-08T15:14:01.043Z,4.35
2022-11-08T15:16:41.028Z,3.70
2022-11-08T15:19:28.897Z,3.38
2022-11-08T15:21:58.927Z,6.05
2022-11-08T15:24:35.086Z,3.17
2022-11-08T15:27:09.133Z,2.80
2022-11-08T15:30:00.334Z,2.97
2022-11-08T15:32:37.397Z,2.08
2022-11-08T15:35:07.813Z,2.28
2022-11-08T15:37:38.809Z,2.75
2022-11-08T15:40:16.855Z,3.80
2022-11-08T15:42:47.178Z,5.60
2022-11-08T15:45:25.648Z,4.97
2022-11-08T15:48:02.794Z,2.58
2022-11-08T15:50:32.280Z,4.90
2022-11-08T15:53:02.475Z,2.83
2022-11-08T15:55:33.567Z,4.53
2022-11-08T15:58:02.838Z,4.13
2022-11-08T16:00:32.881Z,2.20
2022-11-08T16:03:02.239Z,2.70
2022-11-08T16:05:32.373Z,2.78
2022-11-08T16:08:01.086Z,4.25
2022-11-08T16:10:32.108Z,6.15
2022-11-08T16:13:01.416Z,3.90
2022-11-08T16:15:32.632Z,3.40
2022-11-08T16:18:03.673Z,3.03
2022-11-08T16:20:34.086Z,3.63
2022-11-08T16:23:04.872Z,2.55
2022-11-08T16:25:36.151Z,3.55
2022-11-08T16:28:17.669Z,2.60
2022-11-08T16:30:47.242Z,4.43
2022-11-08T16:33:21.566Z,2.80
2022-11-08T16:35:50.382Z,2.63
2022-11-08T16:38:23.292Z,2.70
2022-11-08T16:40:51.392Z,5.97
2022-11-08T16:43:19.789Z,4.40
2022-11-08T16:46:04.892Z,5.00
2022-11-08T16:48:36.933Z,3.38
2022-11-08T16:51:07.384Z,2.58
2022-11-08T16:53:37.474Z,3.45
2022-11-08T16:56:05.597Z,3.47
2022-11-08T16:58:33.687Z,3.75
2022-11-08T17:01:06.105Z,3.95
2022-11-08T17:03:38.834Z,2.50
2022-11-08T17:06:07.330Z,3.15
2022-11-08T17:08:35.519Z,3.40
2022-11-08T17:11:03.912Z,4.35
2022-11-08T17:13:36.146Z,2.90
2022-11-08T17:16:09.950Z,3.92
2022-11-08T17:18:40.181Z,5.97
2022-11-08T17:21:30.292Z,3.83
2022-11-08T17:23:56.897Z,3.50
2022-11-08T17:26:25.100Z,4.90
2022-11-08T17:28:56.409Z,3.13
2022-11-08T17:31:24.496Z,1.88
2022-11-08T17:33:55.103Z,2.30
2022-11-08T17:36:24.937Z,4.07
2022-11-08T17:38:53.146Z,4.03
2022-11-08T17:41:21.658Z,6.38
2022-11-08T17:43:50.727Z,3.47
2022-11-08T17:46:18.824Z,2.88
2022-11-08T17:48:46.928Z,4.20
2022-11-08T17:51:16.480Z,4.03
2022-11-08T17:53:45.014Z,2.55
2022-11-08T17:56:13.676Z,2.60
2022-11-08T17:58:42.241Z,4.00
2022-11-08T18:01:10.614Z,2.70
2022-11-08T18:03:38.884Z,3.42
2022-11-08T18:06:09.708Z,4.78
2022-11-08T18:08:39.405Z,2.70
2022-11-08T18:11:07.647Z,4.88
2022-11-08T18:13:36.824Z,3.33
2022-11-08T18:16:10.005Z,4.43
2022-11-08T18:18:39.842Z,4.38
2022-11-08T18:21:08.758Z,3.95
2022-11-08T18:23:40.058Z,4.63
2022-11-08T18:26:08.336Z,3.95
2022-11-08T18:28:37.675Z,6.20
2022-11-08T18:31:07.857Z,5.50
2022-11-08T18:33:38.719Z,3.53
2022-11-08T18:36:08.109Z,6.68
2022-11-08T18:38:39.002Z,5.88
2022-11-08T18:41:09.475Z,4.32
2022-11-08T18:43:38.076Z,5.90
2022-11-08T18:46:07.508Z,3.72
2022-11-08T18:48:36.720Z,3.95
2022-11-08T18:51:05.421Z,3.30
2022-11-08T18:53:34.409Z,4.72
2022-11-08T18:56:02.524Z,4.03
2022-11-08T18:58:31.930Z,3.38
2022-11-08T19:01:00.422Z,4.80
2022-11-08T19:03:29.440Z,2.83
2022-11-08T19:05:57.880Z,4.32
2022-11-08T19:08:30.168Z,4.03
2022-11-08T19:11:00.166Z,2.85
2022-11-08T19:13:31.576Z,2.88
2022-11-08T19:16:01.262Z,3.85
2022-11-08T19:18:30.508Z,3.50
2022-11-08T19:20:59.682Z,3.47
2022-11-08T19:23:28.078Z,3.63
2022-11-08T19:25:57.566Z,3.95
2022-11-08T19:28:29.115Z,5.28
2022-11-08T19:31:01.392Z,3.40
2022-11-08T19:33:31.358Z,3.83
2022-11-08T19:36:02.722Z,5.82
2022-11-08T19:38:32.134Z,5.32
2022-11-08T19:41:02.860Z,4.85
2022-11-08T19:43:31.388Z,3.95
2022-11-08T19:46:04.324Z,6.32
2022-11-08T19:48:33.413Z,4.35
2022-11-08T19:51:02.557Z,4.75
2022-11-08T19:53:31.058Z,5.60
2022-11-08T19:56:02.609Z,3.92
2022-11-08T19:58:33.354Z,3.47
2022-11-08T20:01:08.007Z,4.05
2022-11-08T20:03:37.063Z,3.10
2022-11-08T20:06:06.506Z,5.13
2022-11-08T20:08:34.974Z,3.35
2022-11-08T20:11:11.742Z,3.20
2022-11-08T20:13:40.241Z,4.55
2022-11-08T20:16:14.697Z,4.82
2022-11-08T20:18:44.274Z,4.22
2022-11-08T20:21:14.078Z,4.07
2022-11-08T20:23:43.432Z,3.97
2022-11-08T20:26:16.389Z,4.93
2022-11-08T20:28:55.340Z,4.03
2022-11-08T20:31:26.284Z,3.00
2022-11-08T20:33:55.031Z,3.05
2022-11-08T20:36:25.588Z,3.70
2022-11-08T20:38:58.285Z,2.83
2022-11-08T20:41:28.958Z,3.78
2022-11-08T20:43:57.927Z,4.72
2022-11-08T20:46:27.801Z,5.07
2022-11-08T20:49:00.157Z,3.53
2022-11-08T20:51:29.890Z,3.22
2022-11-08T20:54:00.518Z,3.25
2022-11-08T20:56:29.507Z,6.38
2022-11-08T20:58:58.482Z,2.33
2022-11-08T21:01:29.750Z,4.07
2022-11-08T21:03:58.217Z,2.40
2022-11-08T21:06:28.514Z,3.45
2022-11-08T21:09:05.658Z,5.78
2022-11-08T21:11:36.682Z,3.15
2022-11-08T21:14:05.416Z,7.43
2022-11-08T21:17:06.747Z,3.97
2022-11-08T21:19:25.597Z,5.25
2022-11-08T21:22:13.981Z,4.43
2022-11-08T21:24:42.174Z,3.83
2022-11-08T21:27:10.968Z,4.05
2022-11-08T21:29:39.486Z,4.47
2022-11-08T21:32:09.382Z,3.78
2022-11-08T21:34:38.836Z,8.95
2022-11-08T21:37:10.004Z,6.85
2022-11-08T21:39:38.403Z,6.68
2022-11-08T21:42:06.598Z,5.80
2022-11-08T21:44:35.089Z,5.15
2022-11-08T21:47:03.239Z,4.35
2022-11-08T21:49:32.717Z,3.22
2022-11-08T21:52:02.094Z,5.55
2022-11-08T21:54:30.392Z,3.47
2022-11-08T21:56:58.456Z,4.55
2022-11-08T21:59:26.590Z,5.10
2022-11-08T22:01:54.826Z,3.28
2022-11-08T22:04:23.150Z,3.90
2022-11-08T22:06:52.662Z,3.83
2022-11-08T22:09:22.189Z,5.40
2022-11-08T22:11:50.449Z,3.47
2022-11-08T22:14:18.552Z,3.47
2022-11-08T22:16:46.803Z,4.95
2022-11-08T22:19:15.416Z,3.70
2022-11-08T22:21:46.013Z,4.35
2022-11-08T22:24:18.154Z,4.60
2022-11-08T22:26:47.172Z,5.65
2022-11-08T22:29:16.179Z,5.40
2022-11-08T22:31:45.296Z,4.50
2022-11-08T22:34:13.777Z,4.32
2022-11-08T22:36:45.338Z,4.05
2022-11-08T22:39:16.298Z,4.65
2022-11-08T22:41:44.816Z,5.60
2022-11-08T22:44:13.775Z,4.18
2022-11-08T22:46:43.208Z,3.80
2022-11-08T22:49:12.264Z,4.75
2022-11-08T22:51:41.524Z,4.47
2022-11-08T22:54:09.800Z,6.28
2022-11-08T22:56:40.169Z,5.18
2022-11-08T22:59:09.087Z,5.43
2022-11-08T23:01:37.245Z,4.50
2022-11-08T23:04:05.418Z,4.47
2022-11-08T23:06:33.587Z,5.50
2022-11-08T23:09:01.907Z,5.28
2022-11-08T23:11:47.766Z,6.20
2022-11-08T23:14:37.553Z,5.22
2022-11-08T23:17:08.218Z,5.80
2022-11-08T23:19:54.300Z,3.67
2022-11-08T23:22:40.160Z,4.18
2022-11-08T23:25:09.046Z,6.43
2022-11-08T23:27:54.662Z,5.03
2022-11-08T23:30:41.691Z,5.85
2022-11-08T23:33:09.886Z,4.68
2022-11-08T23:35:58.679Z,5.35
2022-11-08T23:38:26.765Z,3.97
2022-11-08T23:41:12.435Z,6.13
2022-11-08T23:43:58.164Z,5.75
2022-11-08T23:46:27.550Z,5.43
2022-11-08T23:48:55.592Z,3.28
2022-11-08T23:51:23.897Z,3.90
2022-11-08T23:53:52.005Z,5.88
2022-11-08T23:56:24.345Z,3.30
2022-11-08T23:58:52.568Z,4.93
